sensor_id;sensor_type;location;lat;lon;timestamp;temperature;humidity
8662;DHT22;29684;47.722;9.388;2022-07-23T00:00:34;19.10;99.90
8662;DHT22;29684;47.722;9.388;2022-07-23T00:03:18;19.20;99.90
8662;DHT22;29684;47.722;9.388;2022-07-23T00:06:03;19.10;99.90
8662;DHT22;29684;47.722;9.388;2022-07-23T00:08:47;18.90;99.90
8662;DHT22;29684;47.722;9.388;2022-07-23T00:11:31;18.70;99.90
8662;DHT22;29684;47.722;9.388;2022-07-23T00:14:15;18.50;99.90
8662;DHT22;29684;47.722;9.388;2022-07-23T00:16:59;18.50;99.90
8662;DHT22;29684;47.722;9.388;2022-07-23T00:19:43;18.70;99.90
8662;DHT22;29684;47.722;9.388;2022-07-23T00:22:27;18.70;99.90
8662;DHT22;29684;47.722;9.388;2022-07-23T00:25:13;18.70;99.90
8662;DHT22;29684;47.722;9.388;2022-07-23T00:27:59;18.80;99.90
8662;DHT22;29684;47.722;9.388;2022-07-23T00:30:43;18.70;99.90
8662;DHT22;29684;47.722;9.388;2022-07-23T00:33:27;18.60;99.90
8662;DHT22;29684;47.722;9.388;2022-07-23T00:36:11;18.50;99.90
8662;DHT22;29684;47.722;9.388;2022-07-23T00:38:55;18.80;99.90
8662;DHT22;29684;47.722;9.388;2022-07-23T00:41:40;18.80;99.90
8662;DHT22;29684;47.722;9.388;2022-07-23T00:44:26;18.70;99.90
8662;DHT22;29684;47.722;9.388;2022-07-23T00:47:10;18.60;99.90
8662;DHT22;29684;47.722;9.388;2022-07-23T00:49:54;18.40;99.90
8662;DHT22;29684;47.722;9.388;2022-07-23T00:52:39;18.20;99.90
8662;DHT22;29684;47.722;9.388;2022-07-23T00:55:24;18.30;99.90
8662;DHT22;29684;47.722;9.388;2022-07-23T00:58:09;18.30;99.90
8662;DHT22;29684;47.722;9.388;2022-07-23T01:00:53;18.70;99.90
8662;DHT22;29684;47.722;9.388;2022-07-23T01:03:37;18.70;99.90
8662;DHT22;29684;47.722;9.388;2022-07-23T01:06:21;18.80;99.90
8662;DHT22;29684;47.722;9.388;2022-07-23T01:09:06;18.80;99.90
8662;DHT22;29684;47.722;9.388;2022-07-23T01:11:51;18.80;99.90
8662;DHT22;29684;47.722;9.388;2022-07-23T01:14:37;18.80;99.90
8662;DHT22;29684;47.722;9.388;2022-07-23T01:17:22;18.80;99.90
8662;DHT22;29684;47.722;9.388;2022-07-23T01:20:06;18.80;99.90
8662;DHT22;29684;47.722;9.388;2022-07-23T01:22:51;18.90;99.90
8662;DHT22;29684;47.722;9.388;2022-07-23T01:25:36;18.80;99.90
8662;DHT22;29684;47.722;9.388;2022-07-23T01:28:20;18.80;99.90
8662;DHT22;29684;47.722;9.388;2022-07-23T01:31:04;18.80;99.90
8662;DHT22;29684;47.722;9.388;2022-07-23T01:33:48;18.80;99.90
8662;DHT22;29684;47.722;9.388;2022-07-23T01:36:34;18.80;99.90
8662;DHT22;29684;47.722;9.388;2022-07-23T01:39:18;18.80;99.90
8662;DHT22;29684;47.722;9.388;2022-07-23T01:42:02;18.80;99.90
8662;DHT22;29684;47.722;9.388;2022-07-23T01:44:46;18.90;99.90
8662;DHT22;29684;47.722;9.388;2022-07-23T01:47:31;18.80;99.90
8662;DHT22;29684;47.722;9.388;2022-07-23T01:50:16;18.80;99.90
8662;DHT22;29684;47.722;9.388;2022-07-23T01:53:00;18.70;99.90
8662;DHT22;29684;47.722;9.388;2022-07-23T01:55:44;18.70;99.90
8662;DHT22;29684;47.722;9.388;2022-07-23T01:58:29;18.70;99.90
8662;DHT22;29684;47.722;9.388;2022-07-23T02:01:13;18.70;99.90
8662;DHT22;29684;47.722;9.388;2022-07-23T02:03:57;18.80;99.90
8662;DHT22;29684;47.722;9.388;2022-07-23T02:06:41;18.80;99.90
8662;DHT22;29684;47.722;9.388;2022-07-23T02:09:25;18.80;99.90
8662;DHT22;29684;47.722;9.388;2022-07-23T02:12:10;18.70;99.90
8662;DHT22;29684;47.722;9.388;2022-07-23T02:14:54;18.70;99.90
8662;DHT22;29684;47.722;9.388;2022-07-23T02:17:38;18.70;99.90
8662;DHT22;29684;47.722;9.388;2022-07-23T02:20:22;18.60;99.90
8662;DHT22;29684;47.722;9.388;2022-07-23T02:23:07;18.70;99.90
8662;DHT22;29684;47.722;9.388;2022-07-23T02:25:51;18.80;99.90
8662;DHT22;29684;47.722;9.388;2022-07-23T02:28:35;18.80;99.90
8662;DHT22;29684;47.722;9.388;2022-07-23T02:31:20;18.90;99.90
8662;DHT22;29684;47.722;9.388;2022-07-23T02:34:05;19.00;99.90
8662;DHT22;29684;47.722;9.388;2022-07-23T02:36:49;19.10;99.90
8662;DHT22;29684;47.722;9.388;2022-07-23T02:39:33;19.20;99.90
8662;DHT22;29684;47.722;9.388;2022-07-23T02:42:17;19.30;99.90
8662;DHT22;29684;47.722;9.388;2022-07-23T02:45:01;19.40;99.90
8662;DHT22;29684;47.722;9.388;2022-07-23T02:47:46;19.50;99.90
8662;DHT22;29684;47.722;9.388;2022-07-23T02:50:30;19.60;99.90
8662;DHT22;29684;47.722;9.388;2022-07-23T02:53:14;19.50;99.90
8662;DHT22;29684;47.722;9.388;2022-07-23T02:55:58;19.60;99.90
8662;DHT22;29684;47.722;9.388;2022-07-23T02:58:42;19.60;99.90
8662;DHT22;29684;47.722;9.388;2022-07-23T03:01:26;19.70;99.90
8662;DHT22;29684;47.722;9.388;2022-07-23T03:04:12;19.80;99.90
8662;DHT22;29684;47.722;9.388;2022-07-23T03:06:56;19.80;99.90
8662;DHT22;29684;47.722;9.388;2022-07-23T03:09:40;19.80;99.90
8662;DHT22;29684;47.722;9.388;2022-07-23T03:12:24;20.00;99.90
8662;DHT22;29684;47.722;9.388;2022-07-23T03:15:09;19.90;99.90
8662;DHT22;29684;47.722;9.388;2022-07-23T03:17:53;20.00;99.90
8662;DHT22;29684;47.722;9.388;2022-07-23T03:20:38;20.20;99.90
8662;DHT22;29684;47.722;9.388;2022-07-23T03:23:22;20.20;99.90
8662;DHT22;29684;47.722;9.388;2022-07-23T03:26:07;20.30;99.90
8662;DHT22;29684;47.722;9.388;2022-07-23T03:28:51;20.20;99.90
8662;DHT22;29684;47.722;9.388;2022-07-23T03:31:36;19.50;99.90
8662;DHT22;29684;47.722;9.388;2022-07-23T03:34:20;19.20;99.90
8662;DHT22;29684;47.722;9.388;2022-07-23T03:37:04;19.10;99.90
8662;DHT22;29684;47.722;9.388;2022-07-23T03:39:48;18.90;99.90
8662;DHT22;29684;47.722;9.388;2022-07-23T03:42:33;18.90;99.90
8662;DHT22;29684;47.722;9.388;2022-07-23T03:45:17;18.80;99.90
8662;DHT22;29684;47.722;9.388;2022-07-23T03:48:02;19.10;99.90
8662;DHT22;29684;47.722;9.388;2022-07-23T03:50:46;19.10;99.90
8662;DHT22;29684;47.722;9.388;2022-07-23T03:53:30;19.10;99.90
8662;DHT22;29684;47.722;9.388;2022-07-23T03:56:14;19.10;99.90
8662;DHT22;29684;47.722;9.388;2022-07-23T03:58:58;19.30;99.90
8662;DHT22;29684;47.722;9.388;2022-07-23T04:01:42;19.40;99.90
8662;DHT22;29684;47.722;9.388;2022-07-23T04:04:26;19.60;99.90
8662;DHT22;29684;47.722;9.388;2022-07-23T04:07:10;19.80;99.90
8662;DHT22;29684;47.722;9.388;2022-07-23T04:09:54;19.80;99.90
8662;DHT22;29684;47.722;9.388;2022-07-23T04:12:38;19.90;99.90
8662;DHT22;29684;47.722;9.388;2022-07-23T04:15:22;19.90;99.90
8662;DHT22;29684;47.722;9.388;2022-07-23T04:18:06;20.00;99.90
8662;DHT22;29684;47.722;9.388;2022-07-23T04:20:52;20.00;99.90
8662;DHT22;29684;47.722;9.388;2022-07-23T04:23:36;19.60;99.90
8662;DHT22;29684;47.722;9.388;2022-07-23T04:26:20;18.50;99.90
8662;DHT22;29684;47.722;9.388;2022-07-23T04:29:05;19.10;99.90
8662;DHT22;29684;47.722;9.388;2022-07-23T04:31:49;19.00;99.90
8662;DHT22;29684;47.722;9.388;2022-07-23T04:34:34;18.80;99.90
8662;DHT22;29684;47.722;9.388;2022-07-23T04:37:18;19.00;99.90
8662;DHT22;29684;47.722;9.388;2022-07-23T04:40:03;19.30;99.90
8662;DHT22;29684;47.722;9.388;2022-07-23T04:42:47;19.30;99.90
8662;DHT22;29684;47.722;9.388;2022-07-23T04:45:31;19.40;99.90
8662;DHT22;29684;47.722;9.388;2022-07-23T04:48:15;19.40;99.90
8662;DHT22;29684;47.722;9.388;2022-07-23T04:50:59;19.70;99.90
8662;DHT22;29684;47.722;9.388;2022-07-23T04:53:43;19.50;99.90
8662;DHT22;29684;47.722;9.388;2022-07-23T04:56:27;19.30;99.90
8662;DHT22;29684;47.722;9.388;2022-07-23T04:59:12;19.10;99.90
8662;DHT22;29684;47.722;9.388;2022-07-23T05:01:56;19.00;99.90
8662;DHT22;29684;47.722;9.388;2022-07-23T05:04:40;18.80;99.90
8662;DHT22;29684;47.722;9.388;2022-07-23T05:07:24;18.70;99.90
8662;DHT22;29684;47.722;9.388;2022-07-23T05:10:08;18.50;99.90
8662;DHT22;29684;47.722;9.388;2022-07-23T05:12:52;18.40;99.90
8662;DHT22;29684;47.722;9.388;2022-07-23T05:15:36;18.50;99.90
8662;DHT22;29684;47.722;9.388;2022-07-23T05:18:20;18.30;99.90
8662;DHT22;29684;47.722;9.388;2022-07-23T05:21:05;18.30;99.90
8662;DHT22;29684;47.722;9.388;2022-07-23T05:23:49;18.40;99.90
8662;DHT22;29684;47.722;9.388;2022-07-23T05:26:33;18.40;99.90
8662;DHT22;29684;47.722;9.388;2022-07-23T05:29:17;18.40;99.90
8662;DHT22;29684;47.722;9.388;2022-07-23T05:32:01;18.60;99.90
8662;DHT22;29684;47.722;9.388;2022-07-23T05:34:46;18.50;99.90
8662;DHT22;29684;47.722;9.388;2022-07-23T05:37:30;18.50;99.90
8662;DHT22;29684;47.722;9.388;2022-07-23T05:40:14;18.50;99.90
8662;DHT22;29684;47.722;9.388;2022-07-23T05:42:58;18.60;99.90
8662;DHT22;29684;47.722;9.388;2022-07-23T05:45:43;18.80;99.90
8662;DHT22;29684;47.722;9.388;2022-07-23T05:48:26;18.80;99.90
8662;DHT22;29684;47.722;9.388;2022-07-23T05:51:13;18.70;99.90
8662;DHT22;29684;47.722;9.388;2022-07-23T05:53:57;18.60;99.90
8662;DHT22;29684;47.722;9.388;2022-07-23T05:56:44;18.70;99.90
8662;DHT22;29684;47.722;9.388;2022-07-23T05:59:29;18.70;99.90
8662;DHT22;29684;47.722;9.388;2022-07-23T06:02:14;18.80;99.90
8662;DHT22;29684;47.722;9.388;2022-07-23T06:04:58;19.00;99.90
8662;DHT22;29684;47.722;9.388;2022-07-23T06:07:42;19.10;99.90
8662;DHT22;29684;47.722;9.388;2022-07-23T06:10:27;19.20;99.90
8662;DHT22;29684;47.722;9.388;2022-07-23T06:13:11;19.20;99.90
8662;DHT22;29684;47.722;9.388;2022-07-23T06:15:55;19.20;99.90
8662;DHT22;29684;47.722;9.388;2022-07-23T06:18:39;19.20;99.90
8662;DHT22;29684;47.722;9.388;2022-07-23T06:21:29;19.30;99.90
8662;DHT22;29684;47.722;9.388;2022-07-23T06:24:16;19.30;99.90
8662;DHT22;29684;47.722;9.388;2022-07-23T06:27:00;19.40;99.90
8662;DHT22;29684;47.722;9.388;2022-07-23T06:29:48;19.40;99.90
8662;DHT22;29684;47.722;9.388;2022-07-23T06:32:34;19.40;99.90
8662;DHT22;29684;47.722;9.388;2022-07-23T06:35:18;19.60;99.90
8662;DHT22;29684;47.722;9.388;2022-07-23T06:38:03;19.60;99.90
8662;DHT22;29684;47.722;9.388;2022-07-23T06:40:47;19.50;99.90
8662;DHT22;29684;47.722;9.388;2022-07-23T06:43:31;19.60;99.90
8662;DHT22;29684;47.722;9.388;2022-07-23T06:46:16;19.60;99.90
8662;DHT22;29684;47.722;9.388;2022-07-23T06:49:00;19.60;99.90
8662;DHT22;29684;47.722;9.388;2022-07-23T06:51:44;19.60;99.90
8662;DHT22;29684;47.722;9.388;2022-07-23T06:54:29;19.70;99.90
8662;DHT22;29684;47.722;9.388;2022-07-23T06:57:13;19.70;99.90
8662;DHT22;29684;47.722;9.388;2022-07-23T06:59:57;19.70;99.90
8662;DHT22;29684;47.722;9.388;2022-07-23T07:02:42;19.80;99.90
8662;DHT22;29684;47.722;9.388;2022-07-23T07:05:26;19.80;99.90
8662;DHT22;29684;47.722;9.388;2022-07-23T07:08:11;19.90;99.90
8662;DHT22;29684;47.722;9.388;2022-07-23T07:10:55;20.00;99.90
8662;DHT22;29684;47.722;9.388;2022-07-23T07:13:39;20.20;99.90
8662;DHT22;29684;47.722;9.388;2022-07-23T07:16:23;20.30;99.90
8662;DHT22;29684;47.722;9.388;2022-07-23T07:19:07;20.30;99.90
8662;DHT22;29684;47.722;9.388;2022-07-23T07:21:52;20.30;99.90
8662;DHT22;29684;47.722;9.388;2022-07-23T07:24:36;20.50;99.90
8662;DHT22;29684;47.722;9.388;2022-07-23T07:27:20;20.60;99.90
8662;DHT22;29684;47.722;9.388;2022-07-23T07:30:06;20.70;99.90
8662;DHT22;29684;47.722;9.388;2022-07-23T07:32:53;20.80;99.90
8662;DHT22;29684;47.722;9.388;2022-07-23T07:35:38;20.90;99.90
8662;DHT22;29684;47.722;9.388;2022-07-23T07:38:22;20.90;99.90
8662;DHT22;29684;47.722;9.388;2022-07-23T07:41:06;20.90;99.90
8662;DHT22;29684;47.722;9.388;2022-07-23T07:43:51;20.90;99.90
8662;DHT22;29684;47.722;9.388;2022-07-23T07:46:36;20.80;99.90
8662;DHT22;29684;47.722;9.388;2022-07-23T07:49:20;20.80;99.90
8662;DHT22;29684;47.722;9.388;2022-07-23T07:52:04;20.70;99.90
8662;DHT22;29684;47.722;9.388;2022-07-23T07:54:50;20.80;99.90
8662;DHT22;29684;47.722;9.388;2022-07-23T07:57:35;20.70;99.90
8662;DHT22;29684;47.722;9.388;2022-07-23T08:00:19;20.60;99.90
8662;DHT22;29684;47.722;9.388;2022-07-23T08:03:03;20.50;99.90
8662;DHT22;29684;47.722;9.388;2022-07-23T08:05:48;20.60;99.90
8662;DHT22;29684;47.722;9.388;2022-07-23T08:08:32;20.70;99.90
8662;DHT22;29684;47.722;9.388;2022-07-23T08:11:17;20.80;99.90
8662;DHT22;29684;47.722;9.388;2022-07-23T08:14:01;20.70;99.90
8662;DHT22;29684;47.722;9.388;2022-07-23T08:16:46;20.70;99.90
8662;DHT22;29684;47.722;9.388;2022-07-23T08:19:30;20.70;99.90
8662;DHT22;29684;47.722;9.388;2022-07-23T08:22:14;20.70;99.90
8662;DHT22;29684;47.722;9.388;2022-07-23T08:24:58;20.80;99.90
8662;DHT22;29684;47.722;9.388;2022-07-23T08:27:42;20.60;99.90
8662;DHT22;29684;47.722;9.388;2022-07-23T08:30:28;20.50;99.90
8662;DHT22;29684;47.722;9.388;2022-07-23T08:33:14;20.80;99.90
8662;DHT22;29684;47.722;9.388;2022-07-23T08:36:01;20.80;99.90
8662;DHT22;29684;47.722;9.388;2022-07-23T08:38:46;20.90;99.90
8662;DHT22;29684;47.722;9.388;2022-07-23T08:41:30;20.80;99.90
8662;DHT22;29684;47.722;9.388;2022-07-23T08:44:16;20.60;99.90
8662;DHT22;29684;47.722;9.388;2022-07-23T08:47:01;20.90;99.90
8662;DHT22;29684;47.722;9.388;2022-07-23T08:49:46;20.90;99.90
8662;DHT22;29684;47.722;9.388;2022-07-23T08:52:31;20.90;99.90
8662;DHT22;29684;47.722;9.388;2022-07-23T08:55:23;20.70;99.90
8662;DHT22;29684;47.722;9.388;2022-07-23T08:58:07;20.60;99.90
8662;DHT22;29684;47.722;9.388;2022-07-23T09:00:51;20.60;99.90
8662;DHT22;29684;47.722;9.388;2022-07-23T09:03:36;20.60;99.90
8662;DHT22;29684;47.722;9.388;2022-07-23T09:06:23;20.70;99.90
8662;DHT22;29684;47.722;9.388;2022-07-23T09:09:17;21.00;99.90
8662;DHT22;29684;47.722;9.388;2022-07-23T09:12:07;21.10;99.90
8662;DHT22;29684;47.722;9.388;2022-07-23T09:14:52;21.20;99.90
8662;DHT22;29684;47.722;9.388;2022-07-23T09:17:38;21.20;99.90
8662;DHT22;29684;47.722;9.388;2022-07-23T09:20:23;21.20;99.90
8662;DHT22;29684;47.722;9.388;2022-07-23T09:23:07;21.10;99.90
8662;DHT22;29684;47.722;9.388;2022-07-23T09:25:51;21.10;99.90
8662;DHT22;29684;47.722;9.388;2022-07-23T09:28:51;21.10;99.90
8662;DHT22;29684;47.722;9.388;2022-07-23T09:34:32;21.00;99.90
8662;DHT22;29684;47.722;9.388;2022-07-23T09:37:22;20.90;99.90
8662;DHT22;29684;47.722;9.388;2022-07-23T09:40:09;20.80;99.90
8662;DHT22;29684;47.722;9.388;2022-07-23T09:42:55;20.70;99.90
8662;DHT22;29684;47.722;9.388;2022-07-23T09:45:40;20.70;99.90
8662;DHT22;29684;47.722;9.388;2022-07-23T09:48:25;20.70;99.90
8662;DHT22;29684;47.722;9.388;2022-07-23T09:51:10;20.70;99.90
8662;DHT22;29684;47.722;9.388;2022-07-23T09:53:54;20.90;99.90
8662;DHT22;29684;47.722;9.388;2022-07-23T09:56:39;20.90;99.90
8662;DHT22;29684;47.722;9.388;2022-07-23T09:59:31;20.80;99.90
8662;DHT22;29684;47.722;9.388;2022-07-23T10:02:17;21.00;99.90
8662;DHT22;29684;47.722;9.388;2022-07-23T10:05:02;21.00;99.90
8662;DHT22;29684;47.722;9.388;2022-07-23T10:07:48;21.10;99.90
8662;DHT22;29684;47.722;9.388;2022-07-23T10:10:34;21.10;99.90
8662;DHT22;29684;47.722;9.388;2022-07-23T10:13:19;21.00;99.90
8662;DHT22;29684;47.722;9.388;2022-07-23T10:16:30;21.30;99.90
8662;DHT22;29684;47.722;9.388;2022-07-23T10:19:15;21.50;99.90
8662;DHT22;29684;47.722;9.388;2022-07-23T10:22:06;21.70;99.90
8662;DHT22;29684;47.722;9.388;2022-07-23T10:37:28;22.20;99.90
8662;DHT22;29684;47.722;9.388;2022-07-23T10:40:19;22.50;99.90
8662;DHT22;29684;47.722;9.388;2022-07-23T10:43:13;22.60;99.90
8662;DHT22;29684;47.722;9.388;2022-07-23T10:46:22;22.70;99.90
8662;DHT22;29684;47.722;9.388;2022-07-23T10:49:30;22.80;99.90
8662;DHT22;29684;47.722;9.388;2022-07-23T10:52:25;22.60;99.90
8662;DHT22;29684;47.722;9.388;2022-07-23T10:55:38;22.70;99.90
8662;DHT22;29684;47.722;9.388;2022-07-23T10:58:22;22.60;99.90
8662;DHT22;29684;47.722;9.388;2022-07-23T11:01:44;22.40;99.90
8662;DHT22;29684;47.722;9.388;2022-07-23T11:04:51;22.20;99.90
8662;DHT22;29684;47.722;9.388;2022-07-23T11:10:53;22.20;99.90
8662;DHT22;29684;47.722;9.388;2022-07-23T11:13:40;22.10;99.90
8662;DHT22;29684;47.722;9.388;2022-07-23T11:16:25;22.10;99.90
8662;DHT22;29684;47.722;9.388;2022-07-23T11:19:10;22.10;99.90
8662;DHT22;29684;47.722;9.388;2022-07-23T11:21:54;22.00;99.90
8662;DHT22;29684;47.722;9.388;2022-07-23T11:24:50;22.10;99.90
8662;DHT22;29684;47.722;9.388;2022-07-23T11:36:01;21.70;99.90
8662;DHT22;29684;47.722;9.388;2022-07-23T11:38:50;21.50;99.90
8662;DHT22;29684;47.722;9.388;2022-07-23T11:41:44;21.60;99.90
8662;DHT22;29684;47.722;9.388;2022-07-23T11:44:30;22.00;99.90
8662;DHT22;29684;47.722;9.388;2022-07-23T11:47:14;22.50;99.90
8662;DHT22;29684;47.722;9.388;2022-07-23T11:50:01;22.70;99.90
8662;DHT22;29684;47.722;9.388;2022-07-23T11:52:45;22.70;99.90
8662;DHT22;29684;47.722;9.388;2022-07-23T11:55:29;22.50;99.90
8662;DHT22;29684;47.722;9.388;2022-07-23T11:58:14;22.40;99.90
8662;DHT22;29684;47.722;9.388;2022-07-23T12:00:58;21.90;99.90
8662;DHT22;29684;47.722;9.388;2022-07-23T12:03:51;21.80;99.90
8662;DHT22;29684;47.722;9.388;2022-07-23T12:06:38;21.80;99.90
8662;DHT22;29684;47.722;9.388;2022-07-23T12:09:22;22.00;99.90
8662;DHT22;29684;47.722;9.388;2022-07-23T12:12:07;22.00;99.90
8662;DHT22;29684;47.722;9.388;2022-07-23T12:14:58;21.80;99.90
8662;DHT22;29684;47.722;9.388;2022-07-23T12:17:45;21.60;99.90
8662;DHT22;29684;47.722;9.388;2022-07-23T12:20:41;21.40;99.90
8662;DHT22;29684;47.722;9.388;2022-07-23T12:23:26;21.50;99.90
8662;DHT22;29684;47.722;9.388;2022-07-23T12:26:11;21.70;99.90
8662;DHT22;29684;47.722;9.388;2022-07-23T12:28:56;22.30;99.90
8662;DHT22;29684;47.722;9.388;2022-07-23T12:31:40;23.10;99.90
8662;DHT22;29684;47.722;9.388;2022-07-23T12:34:24;23.00;99.90
8662;DHT22;29684;47.722;9.388;2022-07-23T12:37:28;23.10;99.90
8662;DHT22;29684;47.722;9.388;2022-07-23T12:40:24;23.60;99.90
8662;DHT22;29684;47.722;9.388;2022-07-23T12:43:32;23.90;99.90
8662;DHT22;29684;47.722;9.388;2022-07-23T12:46:20;23.90;99.90
8662;DHT22;29684;47.722;9.388;2022-07-23T12:49:04;24.20;99.90
8662;DHT22;29684;47.722;9.388;2022-07-23T12:51:49;24.70;99.90
8662;DHT22;29684;47.722;9.388;2022-07-23T12:54:33;25.20;99.90
8662;DHT22;29684;47.722;9.388;2022-07-23T12:57:17;25.20;99.90
8662;DHT22;29684;47.722;9.388;2022-07-23T13:00:08;25.20;99.90
8662;DHT22;29684;47.722;9.388;2022-07-23T13:02:53;25.80;99.90
8662;DHT22;29684;47.722;9.388;2022-07-23T13:05:37;25.70;99.90
8662;DHT22;29684;47.722;9.388;2022-07-23T13:08:22;26.10;99.90
8662;DHT22;29684;47.722;9.388;2022-07-23T13:11:07;26.20;99.90
8662;DHT22;29684;47.722;9.388;2022-07-23T13:13:51;27.00;99.90
8662;DHT22;29684;47.722;9.388;2022-07-23T13:16:36;27.70;99.90
8662;DHT22;29684;47.722;9.388;2022-07-23T13:19:20;28.40;99.90
8662;DHT22;29684;47.722;9.388;2022-07-23T13:22:06;27.80;99.90
8662;DHT22;29684;47.722;9.388;2022-07-23T13:24:50;28.00;99.90
8662;DHT22;29684;47.722;9.388;2022-07-23T13:27:34;29.20;99.90
8662;DHT22;29684;47.722;9.388;2022-07-23T13:30:18;28.20;99.90
8662;DHT22;29684;47.722;9.388;2022-07-23T13:33:03;27.60;99.90
8662;DHT22;29684;47.722;9.388;2022-07-23T13:35:48;28.90;99.90
8662;DHT22;29684;47.722;9.388;2022-07-23T13:38:33;29.50;99.90
8662;DHT22;29684;47.722;9.388;2022-07-23T13:41:18;28.90;99.90
8662;DHT22;29684;47.722;9.388;2022-07-23T13:44:02;29.40;99.90
8662;DHT22;29684;47.722;9.388;2022-07-23T13:46:47;29.10;99.90
8662;DHT22;29684;47.722;9.388;2022-07-23T13:49:31;29.20;99.90
8662;DHT22;29684;47.722;9.388;2022-07-23T13:52:15;29.40;99.90
8662;DHT22;29684;47.722;9.388;2022-07-23T13:55:01;30.70;99.90
8662;DHT22;29684;47.722;9.388;2022-07-23T13:57:46;31.20;99.90
8662;DHT22;29684;47.722;9.388;2022-07-23T14:00:31;29.70;99.90
8662;DHT22;29684;47.722;9.388;2022-07-23T14:03:17;29.80;99.90
8662;DHT22;29684;47.722;9.388;2022-07-23T14:06:01;29.50;99.90
8662;DHT22;29684;47.722;9.388;2022-07-23T14:08:46;30.00;99.90
8662;DHT22;29684;47.722;9.388;2022-07-23T14:11:30;31.40;99.90
8662;DHT22;29684;47.722;9.388;2022-07-23T14:14:16;32.90;99.90
8662;DHT22;29684;47.722;9.388;2022-07-23T14:17:01;33.90;99.90
8662;DHT22;29684;47.722;9.388;2022-07-23T14:19:45;34.10;99.90
8662;DHT22;29684;47.722;9.388;2022-07-23T14:22:29;33.30;99.90
8662;DHT22;29684;47.722;9.388;2022-07-23T14:25:13;32.80;99.90
8662;DHT22;29684;47.722;9.388;2022-07-23T14:27:57;34.00;99.90
8662;DHT22;29684;47.722;9.388;2022-07-23T14:30:41;34.00;99.90
8662;DHT22;29684;47.722;9.388;2022-07-23T14:33:27;34.80;99.90
8662;DHT22;29684;47.722;9.388;2022-07-23T14:36:11;33.90;99.90
8662;DHT22;29684;47.722;9.388;2022-07-23T14:38:55;34.50;99.90
8662;DHT22;29684;47.722;9.388;2022-07-23T14:41:40;35.20;99.90
8662;DHT22;29684;47.722;9.388;2022-07-23T14:44:24;34.00;99.90
8662;DHT22;29684;47.722;9.388;2022-07-23T14:47:08;32.20;99.90
8662;DHT22;29684;47.722;9.388;2022-07-23T14:49:52;33.00;99.90
8662;DHT22;29684;47.722;9.388;2022-07-23T14:52:37;33.40;99.90
8662;DHT22;29684;47.722;9.388;2022-07-23T14:55:21;33.80;99.90
8662;DHT22;29684;47.722;9.388;2022-07-23T14:58:05;33.40;99.90
8662;DHT22;29684;47.722;9.388;2022-07-23T15:00:50;34.10;99.90
8662;DHT22;29684;47.722;9.388;2022-07-23T15:03:34;34.80;99.90
8662;DHT22;29684;47.722;9.388;2022-07-23T15:06:18;34.10;99.90
8662;DHT22;29684;47.722;9.388;2022-07-23T15:09:03;33.30;99.90
8662;DHT22;29684;47.722;9.388;2022-07-23T15:11:47;32.00;99.90
8662;DHT22;29684;47.722;9.388;2022-07-23T15:14:31;31.00;99.90
8662;DHT22;29684;47.722;9.388;2022-07-23T15:17:15;29.80;99.90
8662;DHT22;29684;47.722;9.388;2022-07-23T15:20:00;29.10;99.90
8662;DHT22;29684;47.722;9.388;2022-07-23T15:22:44;29.00;99.90
8662;DHT22;29684;47.722;9.388;2022-07-23T15:25:32;29.70;99.90
8662;DHT22;29684;47.722;9.388;2022-07-23T15:28:16;31.70;99.90
8662;DHT22;29684;47.722;9.388;2022-07-23T15:31:00;33.20;99.90
8662;DHT22;29684;47.722;9.388;2022-07-23T15:33:44;33.90;99.90
8662;DHT22;29684;47.722;9.388;2022-07-23T15:36:28;33.90;99.90
8662;DHT22;29684;47.722;9.388;2022-07-23T15:39:12;34.30;99.90
8662;DHT22;29684;47.722;9.388;2022-07-23T15:41:57;33.90;99.90
8662;DHT22;29684;47.722;9.388;2022-07-23T15:44:41;34.20;99.90
8662;DHT22;29684;47.722;9.388;2022-07-23T15:47:26;33.80;99.90
8662;DHT22;29684;47.722;9.388;2022-07-23T15:50:10;33.80;99.90
8662;DHT22;29684;47.722;9.388;2022-07-23T15:52:54;33.90;99.90
8662;DHT22;29684;47.722;9.388;2022-07-23T15:55:40;35.10;99.90
8662;DHT22;29684;47.722;9.388;2022-07-23T15:58:26;34.30;99.90
8662;DHT22;29684;47.722;9.388;2022-07-23T16:01:11;33.70;99.90
8662;DHT22;29684;47.722;9.388;2022-07-23T16:03:56;33.20;99.90
8662;DHT22;29684;47.722;9.388;2022-07-23T16:06:42;33.40;99.90
8662;DHT22;29684;47.722;9.388;2022-07-23T16:09:27;33.60;99.90
8662;DHT22;29684;47.722;9.388;2022-07-23T16:12:11;34.50;99.90
8662;DHT22;29684;47.722;9.388;2022-07-23T16:14:56;35.00;99.90
8662;DHT22;29684;47.722;9.388;2022-07-23T16:17:40;35.20;99.90
8662;DHT22;29684;47.722;9.388;2022-07-23T16:20:24;34.30;99.90
8662;DHT22;29684;47.722;9.388;2022-07-23T16:23:09;33.30;99.90
8662;DHT22;29684;47.722;9.388;2022-07-23T16:25:53;32.40;99.90
8662;DHT22;29684;47.722;9.388;2022-07-23T16:28:37;33.10;99.90
8662;DHT22;29684;47.722;9.388;2022-07-23T16:31:24;33.60;99.90
8662;DHT22;29684;47.722;9.388;2022-07-23T16:34:11;34.20;99.90
8662;DHT22;29684;47.722;9.388;2022-07-23T16:37:01;35.00;99.90
8662;DHT22;29684;47.722;9.388;2022-07-23T16:39:48;35.30;99.90
8662;DHT22;29684;47.722;9.388;2022-07-23T16:42:32;36.00;99.90
8662;DHT22;29684;47.722;9.388;2022-07-23T16:45:17;36.40;99.90
8662;DHT22;29684;47.722;9.388;2022-07-23T16:48:01;36.10;99.90
8662;DHT22;29684;47.722;9.388;2022-07-23T16:50:46;35.60;99.90
8662;DHT22;29684;47.722;9.388;2022-07-23T16:53:30;35.30;99.20
8662;DHT22;29684;47.722;9.388;2022-07-23T16:56:14;34.70;99.90
8662;DHT22;29684;47.722;9.388;2022-07-23T16:58:58;33.70;99.90
8662;DHT22;29684;47.722;9.388;2022-07-23T17:01:42;33.70;99.90
8662;DHT22;29684;47.722;9.388;2022-07-23T17:04:26;33.90;99.90
8662;DHT22;29684;47.722;9.388;2022-07-23T17:07:11;33.80;99.90
8662;DHT22;29684;47.722;9.388;2022-07-23T17:09:55;33.20;99.90
8662;DHT22;29684;47.722;9.388;2022-07-23T17:12:39;32.90;99.90
8662;DHT22;29684;47.722;9.388;2022-07-23T17:15:24;33.50;99.90
8662;DHT22;29684;47.722;9.388;2022-07-23T17:18:08;33.90;99.90
8662;DHT22;29684;47.722;9.388;2022-07-23T17:20:57;33.40;99.90
8662;DHT22;29684;47.722;9.388;2022-07-23T17:23:41;33.40;99.90
8662;DHT22;29684;47.722;9.388;2022-07-23T17:26:25;34.30;99.90
8662;DHT22;29684;47.722;9.388;2022-07-23T17:29:10;34.20;99.90
8662;DHT22;29684;47.722;9.388;2022-07-23T17:31:54;33.40;99.90
8662;DHT22;29684;47.722;9.388;2022-07-23T17:34:38;31.00;99.90
8662;DHT22;29684;47.722;9.388;2022-07-23T17:37:22;30.00;99.90
8662;DHT22;29684;47.722;9.388;2022-07-23T17:40:07;30.00;99.90
8662;DHT22;29684;47.722;9.388;2022-07-23T17:42:51;30.50;99.90
8662;DHT22;29684;47.722;9.388;2022-07-23T17:45:35;30.00;99.90
8662;DHT22;29684;47.722;9.388;2022-07-23T17:48:20;29.00;99.90
8662;DHT22;29684;47.722;9.388;2022-07-23T17:51:05;28.60;99.90
8662;DHT22;29684;47.722;9.388;2022-07-23T17:53:51;28.50;99.90
8662;DHT22;29684;47.722;9.388;2022-07-23T17:56:35;28.60;99.90
8662;DHT22;29684;47.722;9.388;2022-07-23T17:59:19;28.20;99.90
8662;DHT22;29684;47.722;9.388;2022-07-23T18:02:04;27.80;99.90
8662;DHT22;29684;47.722;9.388;2022-07-23T18:04:48;27.60;99.90
8662;DHT22;29684;47.722;9.388;2022-07-23T18:07:32;26.90;99.90